Time;durP1;ratioP1;P1;durP2;ratioP2;P2;SDS_P1;SDS_P2;PMS_P1;PMS_P2;Temp;Humidity;BMP_temperature;BMP_pressure;BME280_temperature;BME280_humidity;BME280_pressure;Samples;Min_cycle;Max_cycle;Signal;HPM_P1;HPM_P2
2022/06/04 00:01:30;;;;;;;5.30;3.50;;;;;;100899.55;;;;107558;1277;27257;-29
2022/06/04 00:03:57;;;;;;;5.50;3.70;;;;;;100894.20;;;;107529;1277;27527;-29
2022/06/04 00:06:24;;;;;;;5.70;3.20;;;;;;100889.98;;;;107449;1278;28808;-29
2022/06/04 00:08:51;;;;;;;6.10;3.80;;;;;;100887.39;;;;107559;1278;27634;-29
2022/06/04 00:16:48;;;;;;;6.00;3.60;;;;;;100885.09;;;;107502;1278;28657;-29
2022/06/04 00:19:14;;;;;;;6.40;3.60;;;;;;100881.29;;;;107545;1277;27413;-30
2022/06/04 00:21:41;;;;;;;5.00;3.30;;;;;;100879.30;;;;107569;1277;29640;-30
2022/06/04 00:24:07;;;;;;;5.20;3.50;;;;;;100878.90;;;;107509;1280;27364;-33
2022/06/04 00:26:35;;;;;;;5.20;3.70;;;;;;100873.72;;;;107513;1278;26552;-31
2022/06/04 00:29:05;;;;;;;6.00;3.90;;;;;;100871.45;;;;107478;1278;29252;-28
2022/06/04 00:31:31;;;;;;;6.90;3.60;;;;;;100869.87;;;;107535;1277;27420;-28
2022/06/04 00:33:58;;;;;;;5.30;3.50;;;;;;100866.46;;;;107536;1278;26199;-29
2022/06/04 00:36:24;;;;;;;5.60;3.60;;;;;;100864.80;;;;107523;1277;27539;-29
2022/06/04 00:38:52;;;;;;;4.80;3.30;;;;;;100863.02;;;;107481;1278;28170;-30
2022/06/04 00:41:28;;;;;;;5.60;3.40;;;;;;100860.75;;;;107532;1277;28608;-29
2022/06/04 00:44:01;;;;;;;4.60;3.40;;;;;;100860.74;;;;107459;1278;28822;-30
2022/06/04 00:46:40;;;;;;;5.30;3.60;;;;;;100863.24;;;;107527;1277;26295;-30
2022/06/04 00:49:15;;;;;;;6.50;3.80;;;;;;100859.02;;;;107530;1278;29861;-30
2022/06/04 00:51:46;;;;;;;4.90;3.40;;;;;;100858.46;;;;107566;1277;28771;-29
2022/06/04 00:54:13;;;;;;;5.70;3.70;;;;;;100858.12;;;;107508;1278;29555;-29
2022/06/04 00:57:19;;;;;;;5.80;3.70;;;;;;100854.69;;;;107481;1277;26262;-30
2022/06/04 00:59:54;;;;;;;6.00;3.40;;;;;;100851.60;;;;107528;1277;27775;-28
2022/06/04 01:02:50;;;;;;;6.70;3.60;;;;;;100850.50;;;;107530;1278;28677;-28
2022/06/04 01:05:48;;;;;;;5.00;3.50;;;;;;100846.97;;;;107551;1277;29756;-28
2022/06/04 01:08:57;;;;;;;5.80;3.60;;;;;;100841.94;;;;107531;1277;29223;-29
2022/06/04 01:12:09;;;;;;;4.90;3.60;;;;;;100840.09;;;;107252;1278;28627;-30
2022/06/04 01:15:39;;;;;;;4.70;3.40;;;;;;100838.95;;;;107487;1279;28578;-30
2022/06/04 01:18:08;;;;;;;5.10;3.60;;;;;;100837.48;;;;107431;1278;28850;-30
2022/06/04 01:20:55;;;;;;;5.70;3.40;;;;;;100834.99;;;;107499;1277;29542;-30
2022/06/04 01:23:58;;;;;;;4.90;3.40;;;;;;100830.25;;;;107486;1279;28730;-30
2022/06/04 01:27:01;;;;;;;5.50;3.70;;;;;;100825.02;;;;107491;1278;26243;-30
2022/06/04 01:29:44;;;;;;;5.10;3.80;;;;;;100825.47;;;;107536;1278;28588;-30
2022/06/04 01:32:23;;;;;;;4.70;3.00;;;;;;100830.41;;;;107513;1277;27262;-27
2022/06/04 01:35:21;;;;;;;6.00;3.50;;;;;;100822.60;;;;107502;1277;27468;-30
2022/06/04 01:38:19;;;;;;;4.40;3.30;;;;;;100819.48;;;;107530;1278;28627;-30
2022/06/04 01:41:24;;;;;;;5.60;3.90;;;;;;100818.97;;;;107510;1277;29524;-30
2022/06/04 01:43:55;;;;;;;4.80;3.30;;;;;;100817.01;;;;107477;1278;28649;-30
2022/06/04 01:46:46;;;;;;;5.20;3.80;;;;;;100816.85;;;;107518;1277;28853;-30
2022/06/04 01:49:29;;;;;;;5.20;3.40;;;;;;100813.13;;;;107548;1278;26045;-30
2022/06/04 01:52:28;;;;;;;4.70;3.70;;;;;;100815.14;;;;107529;1277;29555;-30
2022/06/04 01:55:14;;;;;;;4.60;3.30;;;;;;100816.39;;;;107516;1277;28706;-30
2022/06/04 01:58:05;;;;;;;5.20;3.60;;;;;;100819.77;;;;107468;1277;28667;-30
2022/06/04 02:00:38;;;;;;;5.10;3.70;;;;;;100825.91;;;;107507;1277;27604;-30
2022/06/04 02:03:23;;;;;;;4.80;3.30;;;;;;100824.20;;;;107521;1277;29226;-29
2022/06/04 02:05:56;;;;;;;4.90;3.70;;;;;;100821.07;;;;107516;1278;28697;-29
2022/06/04 02:08:32;;;;;;;4.80;3.60;;;;;;100812.91;;;;107489;1277;28703;-30
2022/06/04 02:11:09;;;;;;;4.70;3.20;;;;;;100801.73;;;;107522;1278;29560;-30
2022/06/04 02:13:36;;;;;;;5.00;3.30;;;;;;100786.33;;;;107533;1278;29490;-31
2022/06/04 02:16:21;;;;;;;4.20;3.00;;;;;;100785.57;;;;107506;1278;27513;-30
2022/06/04 02:18:49;;;;;;;5.80;3.70;;;;;;100782.52;;;;107502;1278;27704;-30
2022/06/04 02:21:18;;;;;;;5.90;3.80;;;;;;100775.75;;;;107516;1277;28616;-30
2022/06/04 02:23:46;;;;;;;5.10;3.80;;;;;;100770.85;;;;107560;1277;28582;-30
2022/06/04 02:26:14;;;;;;;5.40;3.70;;;;;;100772.89;;;;107537;1279;27949;-30
2022/06/04 02:28:41;;;;;;;4.80;3.20;;;;;;100775.92;;;;107546;1276;29572;-30
2022/06/04 02:31:28;;;;;;;5.00;3.40;;;;;;100776.77;;;;107453;1279;27405;-30
2022/06/04 02:34:08;;;;;;;4.30;3.00;;;;;;100776.98;;;;107493;1277;28670;-30
2022/06/04 02:37:38;;;;;;;5.10;3.50;;;;;;100771.84;;;;107503;1278;28658;-29
2022/06/04 02:40:12;;;;;;;4.50;3.50;;;;;;100765.63;;;;107499;1277;27475;-29
2022/06/04 02:43:43;;;;;;;5.00;3.40;;;;;;100767.23;;;;107528;1277;29745;-29
2022/06/04 02:46:24;;;;;;;4.20;3.30;;;;;;100761.95;;;;106913;1285;27606;-30
2022/06/04 02:49:05;;;;;;;5.10;3.30;;;;;;100754.02;;;;107444;1277;28934;-30
2022/06/04 02:51:37;;;;;;;5.30;3.50;;;;;;100756.52;;;;107505;1278;28671;-30
2022/06/04 02:54:09;;;;;;;4.60;3.30;;;;;;100758.07;;;;107476;1278;27755;-30
2022/06/04 02:56:38;;;;;;;5.00;3.60;;;;;;100756.95;;;;107512;1278;28609;-30
2022/06/04 02:59:08;;;;;;;4.10;3.00;;;;;;100752.89;;;;107479;1277;29736;-30
2022/06/04 03:01:42;;;;;;;4.70;3.30;;;;;;100753.70;;;;107366;1279;28659;-30
2022/06/04 03:04:09;;;;;;;4.60;3.30;;;;;;100751.59;;;;107498;1277;27290;-30
2022/06/04 03:06:37;;;;;;;4.40;3.30;;;;;;100748.52;;;;107555;1278;27521;-30
2022/06/04 03:09:13;;;;;;;4.40;3.20;;;;;;100744.65;;;;107534;1277;28692;-30
2022/06/04 03:11:46;;;;;;;4.90;3.50;;;;;;100747.34;;;;107511;1278;27410;-30
2022/06/04 03:14:16;;;;;;;4.40;3.20;;;;;;100752.17;;;;107508;1278;28550;-30
2022/06/04 03:16:46;;;;;;;5.00;3.30;;;;;;100760.06;;;;107551;1277;29803;-30
2022/06/04 03:19:13;;;;;;;5.00;3.70;;;;;;100760.89;;;;107532;1276;27538;-30
2022/06/04 03:21:41;;;;;;;5.80;3.70;;;;;;100758.98;;;;107502;1278;29589;-30
2022/06/04 03:24:12;;;;;;;4.70;3.40;;;;;;100758.44;;;;107534;1277;28656;-30
2022/06/04 03:26:40;;;;;;;4.50;3.20;;;;;;100756.67;;;;107514;1277;28510;-30
2022/06/04 03:29:06;;;;;;;5.10;3.30;;;;;;100751.17;;;;107516;1278;29232;-29
2022/06/04 03:31:34;;;;;;;5.30;3.60;;;;;;100743.98;;;;107451;1278;27178;-29
2022/06/04 03:34:02;;;;;;;4.80;3.20;;;;;;100739.95;;;;107518;1278;27466;-29
2022/06/04 03:36:29;;;;;;;4.00;3.10;;;;;;100742.50;;;;107540;1277;27641;-29
2022/06/04 03:39:00;;;;;;;4.30;3.10;;;;;;100743.83;;;;107539;1277;26185;-30
2022/06/04 03:41:27;;;;;;;4.20;3.10;;;;;;100747.99;;;;107537;1277;27696;-29
2022/06/04 03:43:54;;;;;;;4.60;3.40;;;;;;100745.27;;;;107513;1279;27448;-29
2022/06/04 03:46:24;;;;;;;4.50;3.20;;;;;;100743.38;;;;107505;1277;28713;-29
2022/06/04 03:48:53;;;;;;;4.30;3.20;;;;;;100742.20;;;;107515;1277;29472;-29
2022/06/04 03:51:21;;;;;;;5.30;3.10;;;;;;100742.36;;;;107538;1277;29556;-29
2022/06/04 03:53:47;;;;;;;4.10;3.10;;;;;;100743.83;;;;107514;1278;28575;-29
2022/06/04 03:56:14;;;;;;;4.60;3.40;;;;;;100739.55;;;;107468;1278;28788;-29
2022/06/04 03:58:41;;;;;;;5.10;3.20;;;;;;100735.34;;;;107485;1278;28721;-29
2022/06/04 04:01:22;;;;;;;4.10;3.30;;;;;;100732.42;;;;107546;1277;29576;-29
2022/06/04 04:03:49;;;;;;;5.00;3.20;;;;;;100727.09;;;;107527;1277;28571;-29
2022/06/04 04:06:23;;;;;;;4.20;3.00;;;;;;100725.05;;;;107537;1278;29176;-29
2022/06/04 04:08:51;;;;;;;4.30;3.20;;;;;;100721.09;;;;107538;1277;27618;-29
2022/06/04 04:11:22;;;;;;;3.90;3.30;;;;;;100721.47;;;;107477;1279;28744;-29
2022/06/04 04:13:51;;;;;;;4.30;3.40;;;;;;100720.52;;;;107478;1278;29607;-29
2022/06/04 04:16:22;;;;;;;4.70;3.20;;;;;;100716.55;;;;107372;1280;27420;-29
2022/06/04 04:18:48;;;;;;;4.30;3.20;;;;;;100716.66;;;;107529;1278;29738;-29
2022/06/04 04:21:19;;;;;;;4.50;3.30;;;;;;100712.66;;;;107517;1277;29796;-29
2022/06/04 04:23:46;;;;;;;4.60;3.20;;;;;;100708.92;;;;107506;1277;28698;-29
2022/06/04 04:26:14;;;;;;;4.40;3.30;;;;;;100703.21;;;;107524;1278;27584;-29
2022/06/04 04:28:42;;;;;;;4.10;2.90;;;;;;100704.26;;;;107538;1278;30389;-29
2022/06/04 04:31:19;;;;;;;4.20;3.30;;;;;;100707.50;;;;107497;1277;27303;-28
2022/06/04 04:33:46;;;;;;;4.90;3.10;;;;;;100707.84;;;;107502;1278;28741;-29
2022/06/04 04:36:13;;;;;;;4.20;3.10;;;;;;100709.30;;;;107486;1277;27283;-27
2022/06/04 04:38:40;;;;;;;4.80;3.40;;;;;;100714.66;;;;107505;1277;28607;-28
2022/06/04 04:41:12;;;;;;;4.70;3.50;;;;;;100717.01;;;;107515;1277;28619;-29
2022/06/04 04:43:39;;;;;;;4.00;3.20;;;;;;100720.63;;;;107558;1277;28635;-29
2022/06/04 04:46:10;;;;;;;4.70;3.00;;;;;;100723.40;;;;107530;1277;28664;-29
2022/06/04 04:48:37;;;;;;;4.60;3.30;;;;;;100722.14;;;;107501;1277;28732;-29
2022/06/04 04:51:05;;;;;;;5.10;3.20;;;;;;100719.98;;;;107520;1278;28506;-29
2022/06/04 04:53:32;;;;;;;4.60;3.00;;;;;;100716.30;;;;107533;1277;27273;-29
2022/06/04 04:55:58;;;;;;;4.60;3.10;;;;;;100715.43;;;;107524;1277;27667;-29
2022/06/04 04:58:25;;;;;;;4.20;2.90;;;;;;100714.63;;;;107518;1278;28767;-29
2022/06/04 05:00:52;;;;;;;4.30;3.40;;;;;;100707.30;;;;107529;1277;28052;-29
2022/06/04 05:03:19;;;;;;;4.20;3.40;;;;;;100705.30;;;;107522;1278;29154;-29
2022/06/04 05:05:56;;;;;;;4.30;3.00;;;;;;100702.66;;;;107499;1279;28726;-29
2022/06/04 05:08:23;;;;;;;4.60;3.40;;;;;;100705.60;;;;107451;1278;29604;-29
2022/06/04 05:10:49;;;;;;;4.00;3.00;;;;;;100705.90;;;;107536;1276;27062;-29
2022/06/04 05:13:16;;;;;;;4.50;3.10;;;;;;100703.39;;;;107519;1277;28671;-30
2022/06/04 05:15:43;;;;;;;4.20;2.90;;;;;;100702.64;;;;107494;1278;28728;-30
2022/06/04 05:18:10;;;;;;;4.30;3.10;;;;;;100702.96;;;;107505;1277;28664;-30
2022/06/04 05:20:41;;;;;;;4.10;3.10;;;;;;100699.16;;;;107536;1278;27473;-30
2022/06/04 05:23:07;;;;;;;4.10;2.80;;;;;;100695.59;;;;107500;1276;30000;-30
2022/06/04 05:25:34;;;;;;;4.10;3.00;;;;;;100696.00;;;;107509;1277;28740;-30
2022/06/04 05:28:01;;;;;;;4.70;3.00;;;;;;100697.54;;;;107370;1278;210386;-30
2022/06/04 05:30:27;;;;;;;3.80;2.80;;;;;;100697.23;;;;107520;1277;28675;-30
2022/06/04 05:32:54;;;;;;;5.60;3.10;;;;;;100699.28;;;;107528;1277;27620;-30
2022/06/04 05:35:21;;;;;;;4.30;3.10;;;;;;100705.60;;;;107537;1278;27423;-30
2022/06/04 05:37:48;;;;;;;4.30;3.10;;;;;;100709.90;;;;107480;1278;28645;-30
2022/06/04 05:40:14;;;;;;;3.80;2.80;;;;;;100706.61;;;;107505;1277;29681;-30
2022/06/04 05:42:41;;;;;;;4.30;3.20;;;;;;100706.05;;;;107521;1277;28749;-30
2022/06/04 05:45:09;;;;;;;4.40;3.30;;;;;;100709.46;;;;107499;1279;27455;-30
2022/06/04 05:47:35;;;;;;;4.00;2.90;;;;;;100710.11;;;;107506;1278;27682;-30
2022/06/04 05:50:03;;;;;;;4.60;3.10;;;;;;100713.52;;;;107501;1277;29557;-30
2022/06/04 05:52:30;;;;;;;4.60;3.00;;;;;;100711.05;;;;107517;1279;29565;-30
2022/06/04 05:54:56;;;;;;;4.50;2.90;;;;;;100706.58;;;;107397;1279;27650;-30
2022/06/04 05:57:24;;;;;;;4.20;3.10;;;;;;100708.44;;;;107525;1278;28685;-30
2022/06/04 05:59:52;;;;;;;3.90;2.90;;;;;;100710.31;;;;107563;1278;27700;-30
2022/06/04 06:02:18;;;;;;;4.20;2.50;;;;;;100711.95;;;;107522;1277;27680;-29
2022/06/04 06:04:45;;;;;;;4.30;3.00;;;;;;100711.91;;;;107555;1277;28652;-29
2022/06/04 06:07:12;;;;;;;4.10;3.00;;;;;;100712.61;;;;107488;1279;27279;-29
2022/06/04 06:09:38;;;;;;;4.00;2.70;;;;;;100711.71;;;;107502;1279;29699;-29
2022/06/04 06:12:06;;;;;;;4.00;2.90;;;;;;100709.15;;;;107497;1279;27556;-29
2022/06/04 06:14:33;;;;;;;4.10;2.70;;;;;;100710.13;;;;107529;1279;28728;-29
2022/06/04 06:17:00;;;;;;;4.20;2.90;;;;;;100713.19;;;;107484;1277;26244;-31
2022/06/04 06:19:28;;;;;;;4.20;2.90;;;;;;100717.26;;;;107484;1279;28792;-33
2022/06/04 06:21:55;;;;;;;4.20;3.00;;;;;;100718.08;;;;107478;1278;26640;-28
2022/06/04 06:24:22;;;;;;;4.40;2.70;;;;;;100718.85;;;;107504;1279;28054;-29
2022/06/04 06:26:56;;;;;;;4.30;2.60;;;;;;100720.89;;;;107471;1278;29295;-29
2022/06/04 06:29:27;;;;;;;4.10;2.90;;;;;;100718.08;;;;107487;1278;27714;-29
2022/06/04 06:31:56;;;;;;;4.70;2.90;;;;;;100718.70;;;;107484;1278;28777;-28
2022/06/04 06:34:24;;;;;;;4.30;3.10;;;;;;100719.31;;;;107496;1279;26168;-29
2022/06/04 06:36:51;;;;;;;3.80;2.90;;;;;;100713.75;;;;107547;1278;28789;-29
2022/06/04 06:39:18;;;;;;;4.60;2.80;;;;;;100716.02;;;;107469;1279;29820;-29
2022/06/04 06:41:46;;;;;;;4.30;2.90;;;;;;100716.64;;;;107508;1279;28557;-29
2022/06/04 06:44:13;;;;;;;3.80;2.70;;;;;;100715.88;;;;107479;1279;27641;-29
2022/06/04 06:46:44;;;;;;;4.00;2.90;;;;;;100711.64;;;;107477;1279;29486;-29
2022/06/04 06:49:27;;;;;;;3.80;2.70;;;;;;100712.42;;;;107361;1279;27479;-29
2022/06/04 06:52:02;;;;;;;4.00;2.60;;;;;;100713.77;;;;107533;1276;28761;-29
2022/06/04 06:54:35;;;;;;;4.10;2.80;;;;;;100712.82;;;;107516;1278;28684;-29
2022/06/04 06:57:06;;;;;;;3.80;2.80;;;;;;100703.70;;;;107533;1278;28840;-29
2022/06/04 06:59:34;;;;;;;4.00;2.90;;;;;;100701.65;;;;107534;1277;29099;-29
2022/06/04 07:02:01;;;;;;;3.70;2.50;;;;;;100700.27;;;;107495;1278;29762;-29
2022/06/04 07:04:28;;;;;;;3.60;2.60;;;;;;100703.48;;;;107516;1277;29605;-29
2022/06/04 07:06:59;;;;;;;4.90;3.00;;;;;;100703.23;;;;107542;1276;28600;-29
2022/06/04 07:09:29;;;;;;;4.10;2.80;;;;;;100707.46;;;;107515;1279;28655;-29
2022/06/04 07:11:57;;;;;;;4.10;3.30;;;;;;100712.27;;;;107500;1278;29590;-29
2022/06/04 07:14:24;;;;;;;4.60;2.80;;;;;;100714.45;;;;107507;1277;29614;-29
2022/06/04 07:16:52;;;;;;;4.60;3.20;;;;;;100711.88;;;;107462;1279;28684;-29
2022/06/04 07:19:22;;;;;;;4.40;3.10;;;;;;100707.66;;;;107557;1278;26189;-29
2022/06/04 07:21:50;;;;;;;4.50;3.10;;;;;;100710.56;;;;107545;1278;29386;-28
2022/06/04 07:24:17;;;;;;;5.40;3.40;;;;;;100710.47;;;;107590;1279;28710;-29
2022/06/04 07:26:44;;;;;;;4.70;3.10;;;;;;100705.73;;;;107523;1277;27107;-29
2022/06/04 07:29:11;;;;;;;5.10;3.60;;;;;;100705.11;;;;107518;1277;29188;-29
2022/06/04 07:31:38;;;;;;;4.90;3.60;;;;;;100705.70;;;;107532;1277;28837;-30
2022/06/04 07:34:06;;;;;;;4.90;3.50;;;;;;100704.27;;;;107493;1279;27557;-28
2022/06/04 07:36:38;;;;;;;5.60;3.70;;;;;;100704.75;;;;107523;1278;27452;-29
2022/06/04 07:39:08;;;;;;;4.50;3.60;;;;;;100704.13;;;;107474;1279;28670;-29
2022/06/04 07:41:43;;;;;;;4.70;3.30;;;;;;100709.40;;;;107442;1279;29165;-30
2022/06/04 07:44:12;;;;;;;5.20;3.20;;;;;;100712.77;;;;107456;1278;27631;-29
2022/06/04 07:46:40;;;;;;;5.80;3.70;;;;;;100710.09;;;;107551;1278;28639;-28
2022/06/04 07:49:07;;;;;;;5.90;3.90;;;;;;100711.48;;;;107539;1278;27271;-29
2022/06/04 07:51:36;;;;;;;5.50;3.90;;;;;;100710.91;;;;107557;1278;28752;-29
2022/06/04 07:54:08;;;;;;;5.70;4.20;;;;;;100713.71;;;;107533;1277;27545;-30
2022/06/04 07:56:36;;;;;;;9.60;5.30;;;;;;100714.77;;;;107518;1277;28738;-30
2022/06/04 07:59:05;;;;;;;9.60;4.80;;;;;;100710.58;;;;107507;1279;28766;-29
2022/06/04 08:01:32;;;;;;;9.60;4.80;;;;;;100705.67;;;;107523;1279;29568;-28
2022/06/04 08:03:58;;;;;;;10.20;5.40;;;;;;100707.14;;;;107458;1278;29935;-29
2022/06/04 08:06:26;;;;;;;8.40;5.70;;;;;;100711.27;;;;107462;1278;27174;-28
2022/06/04 08:08:58;;;;;;;9.70;5.50;;;;;;100712.54;;;;107556;1277;27434;-29
2022/06/04 08:11:31;;;;;;;9.00;5.00;;;;;;100710.98;;;;107550;1278;28911;-28
2022/06/04 08:14:08;;;;;;;9.80;5.10;;;;;;100712.38;;;;107534;1278;26217;-28
2022/06/04 08:16:38;;;;;;;8.00;5.10;;;;;;100712.35;;;;107524;1279;28689;-28
2022/06/04 08:19:06;;;;;;;7.50;5.30;;;;;;100711.77;;;;107427;1279;29634;-29
2022/06/04 08:21:35;;;;;;;8.60;5.60;;;;;;100709.04;;;;107517;1277;28587;-29
2022/06/04 08:24:03;;;;;;;8.60;5.20;;;;;;100704.94;;;;107520;1278;28481;-29
2022/06/04 08:26:30;;;;;;;8.20;5.00;;;;;;100703.48;;;;107479;1279;28632;-28
2022/06/04 08:28:57;;;;;;;7.40;5.10;;;;;;100700.06;;;;107463;1278;28781;-29
2022/06/04 08:31:24;;;;;;;8.30;5.50;;;;;;100695.31;;;;107492;1278;28747;-28
2022/06/04 08:33:50;;;;;;;8.70;5.00;;;;;;100695.14;;;;107516;1277;27678;-28
2022/06/04 08:36:19;;;;;;;7.80;5.20;;;;;;100694.23;;;;107456;1279;28734;-28
2022/06/04 08:38:46;;;;;;;7.30;5.20;;;;;;100695.95;;;;107516;1278;28719;-28
2022/06/04 08:42:06;;;;;;;8.60;5.50;;;;;;100693.35;;;;107522;1277;28684;-28
2022/06/04 08:44:39;;;;;;;8.00;4.70;;;;;;100695.05;;;;107495;1277;28648;-28
2022/06/04 08:47:18;;;;;;;7.30;5.30;;;;;;100696.42;;;;107489;1279;28723;-28
2022/06/04 08:49:56;;;;;;;6.70;4.70;;;;;;100700.76;;;;107519;1279;28719;-29
2022/06/04 08:52:31;;;;;;;7.90;4.60;;;;;;100705.63;;;;107458;1278;28667;-29
2022/06/04 08:57:50;;;;;;;7.70;4.90;;;;;;100703.08;;;;107500;1279;28612;-28
2022/06/04 09:00:24;;;;;;;7.10;4.60;;;;;;100697.23;;;;107525;1278;29522;-28
2022/06/04 09:02:58;;;;;;;7.60;4.90;;;;;;100700.20;;;;107520;1278;28648;-29
2022/06/04 09:06:11;;;;;;;7.70;4.60;;;;;;100695.83;;;;107523;1278;27630;-28
2022/06/04 09:08:57;;;;;;;6.60;5.10;;;;;;100690.77;;;;107489;1278;28620;-28
2022/06/04 09:11:55;;;;;;;7.10;4.70;;;;;;100687.37;;;;107482;1279;27445;-29
2022/06/04 09:14:37;;;;;;;9.20;4.90;;;;;;100683.23;;;;107469;1277;28633;-29
2022/06/04 09:17:42;;;;;;;6.00;4.50;;;;;;100686.02;;;;107456;1279;30766;-29
2022/06/04 09:20:19;;;;;;;7.00;4.40;;;;;;100682.39;;;;107472;1278;27859;-29
2022/06/04 09:22:47;;;;;;;6.70;4.80;;;;;;100680.05;;;;107480;1279;29668;-27
2022/06/04 09:25:16;;;;;;;7.80;4.70;;;;;;100686.40;;;;107484;1279;29643;-28
2022/06/04 09:28:30;;;;;;;7.30;5.00;;;;;;100688.33;;;;107487;1278;28729;-28
2022/06/04 09:31:38;;;;;;;6.00;4.50;;;;;;100692.12;;;;106925;1284;28708;-29
2022/06/04 09:34:19;;;;;;;6.10;4.60;;;;;;100691.48;;;;107450;1279;28838;-29
2022/06/04 09:36:46;;;;;;;7.80;4.70;;;;;;100693.08;;;;107479;1277;27660;-29
2022/06/04 09:39:33;;;;;;;6.60;4.50;;;;;;100695.12;;;;107440;1277;28786;-29
2022/06/04 09:42:05;;;;;;;6.80;4.50;;;;;;100696.69;;;;107512;1277;28510;-28
2022/06/04 09:44:37;;;;;;;7.10;4.90;;;;;;100694.89;;;;107501;1278;27480;-29
2022/06/04 09:47:35;;;;;;;5.80;4.70;;;;;;100697.27;;;;107515;1278;29434;-29
2022/06/04 09:50:37;;;;;;;7.20;4.60;;;;;;100697.95;;;;107506;1277;28681;-28
2022/06/04 09:53:22;;;;;;;6.20;4.40;;;;;;100699.48;;;;107472;1278;29244;-28
2022/06/04 09:56:30;;;;;;;6.80;4.80;;;;;;100701.08;;;;107522;1278;27298;-28
2022/06/04 09:59:18;;;;;;;6.40;4.70;;;;;;100703.86;;;;107466;1279;27420;-28
2022/06/04 10:02:02;;;;;;;6.20;4.60;;;;;;100701.88;;;;107538;1277;28185;-29
2022/06/04 10:05:03;;;;;;;6.50;4.80;;;;;;100704.10;;;;107506;1279;28756;-29
2022/06/04 10:07:34;;;;;;;7.70;4.90;;;;;;100705.48;;;;107296;1280;28898;-29
2022/06/04 10:10:34;;;;;;;6.70;4.40;;;;;;100704.48;;;;107480;1279;29353;-29
2022/06/04 10:16:23;;;;;;;5.70;4.50;;;;;;100702.04;;;;107525;1278;28124;-29
2022/06/04 10:19:13;;;;;;;5.80;4.80;;;;;;100699.30;;;;107524;1279;29626;-29
2022/06/04 10:21:43;;;;;;;6.70;4.60;;;;;;100696.83;;;;107477;1280;26473;-29
2022/06/04 10:24:27;;;;;;;6.60;4.60;;;;;;100699.88;;;;107540;1278;28722;-29
2022/06/04 10:27:39;;;;;;;6.30;4.60;;;;;;100697.34;;;;107537;1278;27908;-29
2022/06/04 10:30:31;;;;;;;7.40;4.40;;;;;;100702.42;;;;107370;1278;28721;-28
2022/06/04 10:33:30;;;;;;;6.60;4.60;;;;;;100705.85;;;;107506;1278;28666;-28
2022/06/04 10:36:26;;;;;;;6.70;4.70;;;;;;100706.06;;;;107459;1279;27776;-28
2022/06/04 10:39:33;;;;;;;6.80;4.40;;;;;;100707.34;;;;107522;1277;27257;-28
2022/06/04 10:42:28;;;;;;;7.90;4.80;;;;;;100707.96;;;;107471;1279;26296;-28
2022/06/04 10:45:18;;;;;;;6.60;4.70;;;;;;100708.77;;;;107540;1278;27585;-29
2022/06/04 10:48:10;;;;;;;6.20;4.80;;;;;;100703.09;;;;107528;1278;29004;-29
2022/06/04 10:53:59;;;;;;;5.70;4.30;;;;;;100697.94;;;;107523;1277;28862;-29
2022/06/04 10:56:37;;;;;;;;;;;;;;100695.67;;;;107517;1279;28814;-29
2022/06/04 10:59:43;;;;;;;6.60;4.40;;;;;;100694.20;;;;107543;1277;27409;-29
2022/06/04 11:02:21;;;;;;;5.50;4.40;;;;;;100696.73;;;;107506;1277;28798;-28
2022/06/04 11:05:17;;;;;;;6.30;4.00;;;;;;100695.11;;;;107460;1279;28733;-29
2022/06/04 11:08:05;;;;;;;5.70;4.10;;;;;;100692.14;;;;107490;1278;28695;-29
2022/06/04 11:10:57;;;;;;;5.40;4.10;;;;;;100692.30;;;;107507;1278;29134;-28
2022/06/04 11:13:28;;;;;;;5.40;4.20;;;;;;100691.59;;;;107485;1278;28696;-29
2022/06/04 11:16:13;;;;;;;5.40;4.10;;;;;;100689.40;;;;107509;1278;27577;-29
2022/06/04 11:18:54;;;;;;;5.30;4.40;;;;;;100689.89;;;;107543;1278;28736;-29
2022/06/04 11:21:40;;;;;;;6.40;4.50;;;;;;100691.10;;;;107545;1277;27888;-29
2022/06/04 11:24:27;;;;;;;6.10;4.20;;;;;;100687.13;;;;107517;1277;29478;-29
2022/06/04 11:27:14;;;;;;;4.90;3.80;;;;;;100684.61;;;;107529;1277;27284;-29
2022/06/04 11:29:41;;;;;;;5.50;3.90;;;;;;100685.60;;;;107539;1278;27237;-29
2022/06/04 11:32:33;;;;;;;7.00;4.40;;;;;;100683.34;;;;107485;1278;28739;-28
2022/06/04 11:35:08;;;;;;;5.80;4.10;;;;;;100685.00;;;;107492;1279;28535;-29
2022/06/04 11:38:04;;;;;;;5.00;4.10;;;;;;100686.93;;;;107512;1278;28907;-29
2022/06/04 11:40:37;;;;;;;5.20;4.30;;;;;;100684.49;;;;107506;1279;28756;-28
2022/06/04 11:43:38;;;;;;;6.30;4.40;;;;;;100681.52;;;;107552;1277;28849;-28
2022/06/04 11:46:23;;;;;;;7.00;4.50;;;;;;100680.57;;;;107502;1278;28716;-28
2022/06/04 11:49:32;;;;;;;5.70;4.70;;;;;;100677.55;;;;107521;1277;28762;-28
2022/06/04 11:52:32;;;;;;;6.30;4.30;;;;;;100669.33;;;;107458;1279;27488;-28
2022/06/04 11:55:18;;;;;;;6.20;4.60;;;;;;100663.73;;;;107494;1279;28784;-28
2022/06/04 11:58:25;;;;;;;5.30;4.40;;;;;;100660.30;;;;107533;1277;28516;-28
2022/06/04 12:00:58;;;;;;;6.20;4.60;;;;;;100660.02;;;;107483;1277;28906;-28
2022/06/04 12:03:42;;;;;;;6.10;4.30;;;;;;100655.19;;;;107454;1280;27707;-28
2022/06/04 12:06:16;;;;;;;6.10;4.70;;;;;;100651.07;;;;107499;1278;29225;-28
2022/06/04 12:08:59;;;;;;;5.50;4.30;;;;;;100653.90;;;;107520;1278;27686;-28
2022/06/04 12:12:08;;;;;;;6.80;4.50;;;;;;100651.18;;;;107507;1277;27537;-28
2022/06/04 12:14:59;;;;;;;6.30;4.60;;;;;;100655.83;;;;107027;1278;28669;-28
2022/06/04 12:17:37;;;;;;;5.90;4.80;;;;;;100656.83;;;;107555;1278;28568;-28
2022/06/04 12:26:29;;;;;;;5.10;4.10;;;;;;100645.27;;;;107521;1278;28789;-28
2022/06/04 12:28:57;;;;;;;5.00;4.40;;;;;;100644.08;;;;107509;1277;28774;-28
2022/06/04 12:31:36;;;;;;;6.40;5.30;;;;;;100647.16;;;;107528;1278;29123;-28
2022/06/04 12:34:32;;;;;;;6.30;4.70;;;;;;100647.38;;;;107471;1280;28647;-28
2022/06/04 12:36:59;;;;;;;6.50;4.70;;;;;;100651.08;;;;107465;1279;28616;-27
2022/06/04 12:39:38;;;;;;;5.70;4.70;;;;;;100654.71;;;;107494;1278;28748;-28
2022/06/04 12:42:20;;;;;;;5.70;4.20;;;;;;100657.80;;;;107540;1278;27316;-26
2022/06/04 12:45:38;;;;;;;6.70;5.40;;;;;;100651.67;;;;107468;1279;28668;-28
2022/06/04 12:48:32;;;;;;;6.90;6.00;;;;;;100645.60;;;;107386;1277;28653;-28
2022/06/04 12:51:12;;;;;;;7.70;6.20;;;;;;100641.67;;;;107488;1278;27388;-30
2022/06/04 12:54:16;;;;;;;6.40;5.80;;;;;;100636.84;;;;107467;1278;28793;-28
2022/06/04 12:56:54;;;;;;;6.60;5.50;;;;;;100626.67;;;;107477;1278;28764;-28
2022/06/04 12:59:36;;;;;;;7.40;6.70;;;;;;100623.73;;;;107543;1278;27465;-28
2022/06/04 13:02:29;;;;;;;7.90;6.10;;;;;;100629.69;;;;107520;1277;29487;-29
2022/06/04 13:05:21;;;;;;;7.10;6.00;;;;;;100632.92;;;;107555;1278;29450;-28
2022/06/04 13:08:05;;;;;;;6.10;5.50;;;;;;100631.48;;;;107547;1278;29100;-28
2022/06/04 13:10:44;;;;;;;;;;;;;;100631.70;;;;107553;1280;28723;-28
2022/06/04 13:13:50;;;;;;;7.00;5.90;;;;;;100625.23;;;;107547;1278;28775;-28
2022/06/04 13:16:30;;;;;;;5.70;5.10;;;;;;100623.92;;;;107550;1278;29467;-28
2022/06/04 13:19:07;;;;;;;6.60;5.30;;;;;;100624.95;;;;107548;1278;29456;-28
2022/06/04 13:21:40;;;;;;;6.00;4.90;;;;;;100622.45;;;;107472;1279;29423;-28
2022/06/04 13:24:17;;;;;;;7.10;5.00;;;;;;100620.68;;;;107550;1278;26276;-28
2022/06/04 13:27:05;;;;;;;8.00;5.40;;;;;;100618.11;;;;107315;1277;320792;-28
2022/06/04 13:29:35;;;;;;;5.20;4.70;;;;;;100616.33;;;;107571;1278;26309;-28
2022/06/04 13:32:18;;;;;;;6.00;5.20;;;;;;100615.13;;;;107568;1278;27524;-29
2022/06/04 13:34:45;;;;;;;5.90;5.20;;;;;;100616.71;;;;107534;1278;28729;-28
2022/06/04 13:37:22;;;;;;;5.60;4.90;;;;;;100613.46;;;;107533;1277;27303;-28
2022/06/04 13:39:53;;;;;;;5.80;4.70;;;;;;100612.90;;;;107461;1280;27333;-28
2022/06/04 13:42:37;;;;;;;5.20;4.70;;;;;;100615.16;;;;107532;1278;28734;-28
2022/06/04 13:45:09;;;;;;;5.90;5.00;;;;;;100620.27;;;;107557;1281;28655;-28
2022/06/04 13:47:48;;;;;;;7.80;5.00;;;;;;100623.19;;;;107556;1278;27562;-28
2022/06/04 13:50:19;;;;;;;7.40;5.00;;;;;;100618.23;;;;107468;1281;29503;-28
2022/06/04 13:53:00;;;;;;;5.80;4.80;;;;;;100622.58;;;;107487;1278;26212;-29
2022/06/04 13:55:36;;;;;;;5.20;4.60;;;;;;100621.38;;;;107521;1279;28678;-29
2022/06/04 13:58:39;;;;;;;5.50;4.70;;;;;;100623.65;;;;107484;1280;28683;-28
2022/06/04 14:01:34;;;;;;;5.20;4.60;;;;;;100622.84;;;;107548;1277;28865;-29